Main page
METAR-TAF:

METAR-TAF

Airports :

Estherville Municipal Airport

Estherville, Iowa, United States

latitude: 43-24-04N, longitude: 094-44-50W, elevation: 1315 ft

Current weather observation

The report was made 35 minutes ago, at 21:52 UTC
Wind 23 mph from the West with gusts up to 30 mph
Temperature 70°F
Humidity 38%
Pressure 29.67 in. Hg
Visibility: 10 miles
Broken clouds at a height of 11000 ft

METAR: KEST 222152Z AUTO 26020G26KT 10SM BKN110 21/06 A2967 RMK AO2 PK WND 24035/2115 SLP047 T02110056

Time: 17:27 (22:27 UTC)


TAF: missing

Weather observations and forecasts of more than 4000 airports (METAR and TAF reports).

The available stations are represented by yellow and red dots on the map.

Hover mouse over dot to see the name of the station.

Then click to see weather observations and forecasts.

To change the map : click on the green buttons with a black cross to zoom in, on the green button with a dash to zoom out, or on the green arrows for adjacent maps.


METAR-TAF: